Time;durP1;ratioP1;P1;durP2;ratioP2;P2;SDS_P1;SDS_P2;PMS_P1;PMS_P2;Temp;Humidity;BMP_temperature;BMP_pressure;BME280_temperature;BME280_humidity;BME280_pressure;Samples;Min_cycle;Max_cycle;Signal;HPM_P1;HPM_P2
2024/01/20 00:02:03;;;;;;;15.50;10.33;;;4.30;99.90;;;;;;4876415;29;20466;-65
2024/01/20 00:04:29;;;;;;;12.93;9.47;;;4.30;99.90;;;;;;4881341;29;20184;-65
2024/01/20 00:06:54;;;;;;;17.40;10.17;;;4.30;99.90;;;;;;4872615;29;20999;-65
2024/01/20 00:09:20;;;;;;;15.40;9.93;;;4.30;99.90;;;;;;4891284;29;20567;-64
2024/01/20 00:11:46;;;;;;;10.87;8.70;;;4.20;99.90;;;;;;4896097;29;20198;-65
2024/01/20 00:14:12;;;;;;;13.90;10.17;;;4.20;99.90;;;;;;4896478;29;20183;-65
2024/01/20 00:16:37;;;;;;;12.27;8.97;;;4.10;99.90;;;;;;4890777;29;20238;-65
2024/01/20 00:19:03;;;;;;;12.23;9.77;;;4.10;99.90;;;;;;4874466;29;20885;-65
2024/01/20 00:21:30;;;;;;;9.50;8.50;;;4.10;99.90;;;;;;4890448;29;20194;-65
2024/01/20 00:23:55;;;;;;;12.05;9.30;;;4.10;99.90;;;;;;4898530;29;20179;-65
2024/01/20 00:26:21;;;;;;;13.90;10.40;;;4.10;99.90;;;;;;4871666;29;20278;-65
2024/01/20 00:28:47;;;;;;;12.63;9.10;;;4.10;99.90;;;;;;4893407;29;20235;-65
2024/01/20 00:31:13;;;;;;;10.53;9.37;;;4.10;99.90;;;;;;4894246;29;20212;-66
2024/01/20 00:33:38;;;;;;;8.97;8.10;;;4.00;99.90;;;;;;4895449;29;20655;-65
2024/01/20 00:36:04;;;;;;;10.93;8.50;;;4.00;99.90;;;;;;4890862;29;20183;-65
2024/01/20 00:38:31;;;;;;;11.17;9.00;;;3.90;99.90;;;;;;4892630;29;20192;-65
2024/01/20 00:40:56;;;;;;;10.30;9.30;;;4.00;99.90;;;;;;4884786;29;20435;-65
2024/01/20 00:43:22;;;;;;;13.60;8.57;;;3.90;99.90;;;;;;4889629;29;20192;-65
2024/01/20 00:45:48;;;;;;;9.87;7.93;;;3.80;99.90;;;;;;4874203;29;20183;-65
2024/01/20 00:48:14;;;;;;;12.00;8.90;;;3.70;99.90;;;;;;4887833;29;20249;-65
2024/01/20 00:50:39;;;;;;;11.67;8.83;;;3.70;99.90;;;;;;4891689;29;20271;-65
2024/01/20 00:53:05;;;;;;;12.03;8.43;;;3.70;99.90;;;;;;4894623;29;20191;-65
2024/01/20 00:55:31;;;;;;;10.73;7.57;;;3.60;99.90;;;;;;4887208;29;20191;-65
2024/01/20 00:57:57;;;;;;;15.03;8.37;;;3.70;99.90;;;;;;4896855;29;22212;-65
2024/01/20 01:00:22;;;;;;;8.67;7.77;;;3.70;99.90;;;;;;4894384;29;20191;-64
2024/01/20 01:02:48;;;;;;;9.70;7.83;;;3.70;99.90;;;;;;4874422;29;20184;-65
2024/01/20 01:05:14;;;;;;;11.73;7.70;;;3.70;99.90;;;;;;4881044;29;20179;-64
2024/01/20 01:07:40;;;;;;;9.32;8.32;;;3.60;99.90;;;;;;4887750;29;20206;-65
2024/01/20 01:10:06;;;;;;;9.67;8.10;;;3.70;99.90;;;;;;4887193;29;20341;-64
2024/01/20 01:12:33;;;;;;;10.13;7.88;;;3.60;99.90;;;;;;4895960;29;20234;-64
2024/01/20 01:14:59;;;;;;;12.25;9.05;;;3.60;99.90;;;;;;4892197;29;20260;-64
2024/01/20 01:17:25;;;;;;;17.17;9.27;;;3.60;99.90;;;;;;4884724;29;20184;-64
2024/01/20 01:19:50;;;;;;;14.20;8.93;;;3.60;99.90;;;;;;4887772;29;20179;-65
2024/01/20 01:22:16;;;;;;;13.47;8.40;;;3.60;99.90;;;;;;4885733;29;20242;-65
2024/01/20 01:24:42;;;;;;;8.07;7.27;;;3.60;99.90;;;;;;4898516;29;20191;-65
2024/01/20 01:27:08;;;;;;;12.20;8.40;;;3.60;99.90;;;;;;4889850;29;20389;-65
2024/01/20 01:29:33;;;;;;;7.80;7.00;;;3.50;99.90;;;;;;4865681;29;20614;-65
2024/01/20 01:32:00;;;;;;;13.10;9.30;;;3.60;99.90;;;;;;4882995;29;20191;-65
2024/01/20 01:34:25;;;;;;;13.18;8.30;;;3.60;99.90;;;;;;4883200;29;20437;-65
2024/01/20 01:36:51;;;;;;;10.20;7.37;;;3.50;99.90;;;;;;4883340;29;20196;-65
2024/01/20 01:39:17;;;;;;;12.73;8.10;;;3.60;99.90;;;;;;4887842;29;20187;-65
2024/01/20 01:41:43;;;;;;;13.13;9.07;;;3.60;99.90;;;;;;4874138;29;20538;-65
2024/01/20 01:44:10;;;;;;;12.60;8.50;;;3.60;99.90;;;;;;4888681;29;20188;-65
2024/01/20 01:46:36;;;;;;;9.68;7.90;;;3.60;99.90;;;;;;4883668;29;20679;-65
2024/01/20 01:49:03;;;;;;;11.25;7.75;;;3.50;99.90;;;;;;4888071;29;20341;-65
2024/01/20 01:51:30;;;;;;;11.05;8.63;;;3.50;99.90;;;;;;4893385;29;20198;-65
2024/01/20 01:53:57;;;;;;;11.18;8.20;;;3.50;99.90;;;;;;4871348;29;20209;-65
2024/01/20 01:56:23;;;;;;;9.63;8.07;;;3.50;99.90;;;;;;4889203;29;20193;-65
2024/01/20 01:58:49;;;;;;;13.20;7.50;;;3.50;99.90;;;;;;4891970;29;20180;-68
2024/01/20 02:01:15;;;;;;;9.53;7.07;;;3.50;99.90;;;;;;4892849;29;20187;-65
2024/01/20 02:03:41;;;;;;;11.23;7.57;;;3.60;99.90;;;;;;4893967;29;20841;-65
2024/01/20 02:06:07;;;;;;;14.38;8.45;;;3.50;99.90;;;;;;4890511;29;20204;-65
2024/01/20 02:08:35;;;;;;;10.27;7.80;;;3.50;99.90;;;;;;4890480;29;20243;-65
2024/01/20 02:11:02;;;;;;;12.80;8.60;;;3.50;99.90;;;;;;4889306;29;20191;-65
2024/01/20 02:13:28;;;;;;;13.20;7.78;;;3.60;99.90;;;;;;4877902;29;20195;-65
2024/01/20 02:15:54;;;;;;;12.50;8.20;;;3.50;99.90;;;;;;4889157;29;20204;-66
2024/01/20 02:18:23;;;;;;;8.63;7.78;;;3.50;99.90;;;;;;4893424;29;20183;-65
2024/01/20 02:20:49;;;;;;;10.45;8.65;;;3.60;99.90;;;;;;4883599;29;20188;-68
2024/01/20 02:23:15;;;;;;;9.20;7.82;;;3.50;99.90;;;;;;4891365;29;20186;-65
2024/01/20 02:25:41;;;;;;;11.53;9.03;;;3.60;99.90;;;;;;4897235;29;20179;-65
2024/01/20 02:28:06;;;;;;;9.13;7.73;;;3.50;99.90;;;;;;4891036;29;20215;-65
2024/01/20 02:30:32;;;;;;;11.77;7.93;;;3.50;99.90;;;;;;4895918;29;20191;-65
2024/01/20 02:32:58;;;;;;;8.37;7.33;;;3.50;99.90;;;;;;4883793;29;20183;-65
2024/01/20 02:35:24;;;;;;;10.40;7.93;;;3.40;99.90;;;;;;4884222;29;20197;-65
2024/01/20 02:37:49;;;;;;;11.77;8.10;;;3.40;99.90;;;;;;4888184;29;20191;-68
2024/01/20 02:40:16;;;;;;;9.80;8.67;;;3.30;99.90;;;;;;4891394;29;20608;-65
2024/01/20 02:42:42;;;;;;;9.57;7.50;;;3.40;99.90;;;;;;4888887;29;20214;-65
2024/01/20 02:45:08;;;;;;;10.50;8.13;;;3.40;99.90;;;;;;4892271;29;20206;-65
2024/01/20 02:47:33;;;;;;;10.50;8.82;;;3.40;99.90;;;;;;4883564;29;20399;-65
2024/01/20 02:49:59;;;;;;;12.53;8.50;;;3.40;99.90;;;;;;4890531;29;20541;-65
2024/01/20 02:52:25;;;;;;;10.47;7.73;;;3.30;99.90;;;;;;4892148;29;20187;-65
2024/01/20 02:54:51;;;;;;;10.77;7.83;;;3.30;99.90;;;;;;4878294;29;20190;-69
2024/01/20 02:57:16;;;;;;;9.37;7.93;;;3.40;99.90;;;;;;4886106;29;20235;-65
2024/01/20 02:59:42;;;;;;;10.33;8.10;;;3.30;99.90;;;;;;4888359;29;20191;-65
2024/01/20 03:02:08;;;;;;;9.63;7.60;;;3.30;99.90;;;;;;4891303;29;20225;-65
2024/01/20 03:04:34;;;;;;;9.00;7.90;;;3.30;99.90;;;;;;4879953;29;20183;-65
2024/01/20 03:06:59;;;;;;;9.53;8.20;;;3.20;99.90;;;;;;4878556;29;20190;-65
2024/01/20 03:09:25;;;;;;;11.33;8.03;;;3.40;99.90;;;;;;4896120;29;20207;-65
2024/01/20 03:11:51;;;;;;;10.80;7.87;;;3.50;99.90;;;;;;4894888;29;20518;-68
2024/01/20 03:14:17;;;;;;;8.50;7.57;;;3.50;99.90;;;;;;4885262;29;20256;-65
2024/01/20 03:16:42;;;;;;;7.60;6.87;;;3.50;99.90;;;;;;4875517;29;20454;-65
2024/01/20 03:19:08;;;;;;;10.33;8.00;;;3.50;99.90;;;;;;4890560;29;20210;-66
2024/01/20 03:21:34;;;;;;;8.63;7.40;;;3.10;99.90;;;;;;4889966;29;20218;-65
2024/01/20 03:24:00;;;;;;;8.90;8.03;;;3.50;99.90;;;;;;4865509;29;20585;-65
2024/01/20 03:26:26;;;;;;;12.13;8.50;;;3.60;99.90;;;;;;4895458;29;20187;-65
2024/01/20 03:28:52;;;;;;;12.37;8.20;;;3.50;99.90;;;;;;4895710;29;20207;-67
2024/01/20 03:31:17;;;;;;;12.00;8.10;;;3.50;99.90;;;;;;4863745;29;20443;-65
2024/01/20 03:33:43;;;;;;;9.73;7.53;;;3.50;99.90;;;;;;4898200;29;20532;-65
2024/01/20 03:36:10;;;;;;;7.23;6.47;;;3.40;99.90;;;;;;4881625;29;20633;-65
2024/01/20 03:38:36;;;;;;;7.35;6.65;;;3.30;99.90;;;;;;4885854;29;20223;-65
2024/01/20 03:41:02;;;;;;;9.60;7.07;;;3.20;99.90;;;;;;4894224;29;20216;-65
2024/01/20 03:43:27;;;;;;;8.37;6.97;;;3.20;99.90;;;;;;4898805;29;20190;-65
2024/01/20 03:45:53;;;;;;;10.53;7.07;;;3.30;99.90;;;;;;4889205;29;20191;-69
2024/01/20 03:48:19;;;;;;;10.00;7.00;;;3.30;99.90;;;;;;4892208;29;20215;-65
2024/01/20 03:50:45;;;;;;;9.43;7.13;;;3.30;99.90;;;;;;4898209;29;20198;-65
2024/01/20 03:53:11;;;;;;;9.53;7.47;;;3.40;99.90;;;;;;4898747;29;20184;-65
2024/01/20 03:55:37;;;;;;;9.73;7.40;;;3.30;99.90;;;;;;4898875;29;20187;-65
2024/01/20 03:58:02;;;;;;;9.27;8.33;;;3.30;99.90;;;;;;4879674;29;20238;-65
2024/01/20 04:00:28;;;;;;;8.57;7.30;;;3.40;99.90;;;;;;4893174;29;20442;-65
2024/01/20 04:02:54;;;;;;;9.23;6.93;;;3.30;99.90;;;;;;4897105;29;20434;-68
2024/01/20 04:05:20;;;;;;;11.20;7.23;;;2.90;99.90;;;;;;4894551;29;20466;-64
2024/01/20 04:07:46;;;;;;;11.20;7.93;;;3.40;99.90;;;;;;4893762;29;20676;-65
2024/01/20 04:10:12;;;;;;;12.88;8.32;;;3.30;99.90;;;;;;4890902;29;20516;-65
2024/01/20 04:12:39;;;;;;;8.43;7.27;;;3.20;99.90;;;;;;4897500;29;20194;-65
2024/01/20 04:15:05;;;;;;;10.07;8.02;;;3.20;99.90;;;;;;4895104;29;20431;-66
2024/01/20 04:17:31;;;;;;;8.80;7.90;;;3.20;99.90;;;;;;4893451;29;20264;-65
2024/01/20 04:19:57;;;;;;;8.00;6.60;;;3.20;99.90;;;;;;4872285;29;20640;-68
2024/01/20 04:22:22;;;;;;;10.00;7.43;;;3.20;99.90;;;;;;4882073;29;20566;-65
2024/01/20 04:24:48;;;;;;;8.80;7.60;;;3.20;99.90;;;;;;4893681;29;20691;-65
2024/01/20 04:27:14;;;;;;;10.70;7.80;;;3.20;99.90;;;;;;4897150;29;20194;-65
2024/01/20 04:29:40;;;;;;;10.13;7.20;;;3.30;99.90;;;;;;4895562;29;20195;-65
2024/01/20 04:32:05;;;;;;;11.40;7.43;;;3.20;99.90;;;;;;4890819;29;20190;-65
2024/01/20 04:34:31;;;;;;;10.50;6.37;;;3.20;99.90;;;;;;4897884;29;20182;-65
2024/01/20 04:36:57;;;;;;;12.73;7.60;;;3.20;99.90;;;;;;4896593;29;20187;-69
2024/01/20 04:39:22;;;;;;;13.63;7.77;;;3.20;99.90;;;;;;4866277;29;20321;-65
2024/01/20 04:41:48;;;;;;;8.63;6.93;;;3.10;99.90;;;;;;4891591;29;20691;-65
2024/01/20 04:44:14;;;;;;;9.23;6.90;;;3.10;99.90;;;;;;4880683;29;20188;-65
2024/01/20 04:46:40;;;;;;;11.60;7.87;;;3.10;99.90;;;;;;4870301;29;20194;-66
2024/01/20 04:49:06;;;;;;;7.67;6.47;;;3.20;99.90;;;;;;4880067;29;20215;-65
2024/01/20 04:51:32;;;;;;;9.10;6.20;;;3.20;99.90;;;;;;4883585;29;20598;-65
2024/01/20 04:53:58;;;;;;;9.20;6.43;;;3.20;99.60;;;;;;4897777;29;20198;-68
2024/01/20 04:56:24;;;;;;;9.13;7.13;;;3.10;99.00;;;;;;4896471;29;20458;-65
2024/01/20 04:58:51;;;;;;;8.27;6.87;;;3.10;99.50;;;;;;4892635;29;21021;-65
2024/01/20 05:01:18;;;;;;;9.88;7.40;;;3.00;99.30;;;;;;4898137;29;20356;-65
2024/01/20 05:03:43;;;;;;;9.50;7.10;;;3.00;99.20;;;;;;4880903;29;20660;-65
2024/01/20 05:06:09;;;;;;;9.07;6.80;;;3.00;98.90;;;;;;4897309;29;20210;-65
2024/01/20 05:08:35;;;;;;;13.13;7.87;;;3.10;99.20;;;;;;4897533;29;20207;-65
2024/01/20 05:11:00;;;;;;;8.10;6.70;;;3.00;99.70;;;;;;4894367;29;20191;-69
2024/01/20 05:13:26;;;;;;;9.33;6.37;;;2.90;99.90;;;;;;4897310;29;20187;-65
2024/01/20 05:15:55;;;;;;;9.70;6.57;;;2.90;99.90;;;;;;4898597;29;20621;-65
2024/01/20 05:18:21;;;;;;;6.30;5.60;;;3.00;99.90;;;;;;4876028;29;20191;-65
2024/01/20 05:20:46;;;;;;;9.40;6.70;;;3.10;99.90;;;;;;4885423;29;20186;-65
2024/01/20 05:23:12;;;;;;;8.80;6.70;;;3.00;99.90;;;;;;4897167;29;20259;-65
2024/01/20 05:25:38;;;;;;;8.93;7.53;;;3.00;99.90;;;;;;4897370;29;20191;-65
2024/01/20 05:28:04;;;;;;;7.23;6.10;;;3.10;99.90;;;;;;4888568;29;20676;-65
2024/01/20 05:30:30;;;;;;;10.93;7.20;;;3.00;99.90;;;;;;4865662;29;20471;-65
2024/01/20 05:32:56;;;;;;;8.68;6.10;;;3.00;99.90;;;;;;4897875;29;20645;-65
2024/01/20 05:35:22;;;;;;;10.60;7.07;;;2.90;99.90;;;;;;4895857;29;20178;-65
2024/01/20 05:37:48;;;;;;;12.50;6.90;;;3.00;99.90;;;;;;4888198;29;20446;-65
2024/01/20 05:40:13;;;;;;;8.73;6.20;;;3.00;99.90;;;;;;4893047;29;20316;-65
2024/01/20 05:42:39;;;;;;;9.20;6.60;;;2.90;99.90;;;;;;4890931;29;20928;-65
2024/01/20 05:45:09;;;;;;;12.53;7.17;;;2.90;99.90;;;;;;4895912;29;20222;-66
2024/01/20 05:47:38;;;;;;;8.70;6.80;;;2.90;99.90;;;;;;4892294;29;20198;-65
2024/01/20 05:50:05;;;;;;;11.55;7.50;;;2.90;99.90;;;;;;4892511;29;20211;-69
2024/01/20 05:52:30;;;;;;;10.73;7.40;;;2.90;99.90;;;;;;4897085;29;20201;-65
2024/01/20 05:54:56;;;;;;;12.87;7.30;;;2.90;99.90;;;;;;4894983;29;20623;-65
2024/01/20 05:57:23;;;;;;;11.13;7.93;;;2.90;99.90;;;;;;4886415;29;20237;-65
2024/01/20 05:59:49;;;;;;;11.50;8.10;;;2.90;99.90;;;;;;4892226;29;20214;-65
2024/01/20 06:02:16;;;;;;;11.25;10.05;;;3.00;99.90;;;;;;4889609;29;20199;-65
2024/01/20 06:04:42;;;;;;;8.55;7.18;;;3.00;99.90;;;;;;4886982;29;20548;-65
2024/01/20 06:07:08;;;;;;;9.97;7.50;;;3.10;99.90;;;;;;4891985;29;20191;-65
2024/01/20 06:09:33;;;;;;;15.40;8.03;;;3.00;99.40;;;;;;4887087;29;20274;-65
2024/01/20 06:11:59;;;;;;;8.43;7.50;;;3.10;99.60;;;;;;4897826;29;20262;-65
2024/01/20 06:14:25;;;;;;;12.47;8.80;;;3.00;99.50;;;;;;4879253;29;20186;-65
2024/01/20 06:16:50;;;;;;;12.50;7.70;;;3.00;99.60;;;;;;4896103;29;20285;-65
2024/01/20 06:19:16;;;;;;;11.17;7.13;;;3.10;99.50;;;;;;4888023;29;20196;-67
2024/01/20 06:21:42;;;;;;;9.00;7.23;;;3.10;99.30;;;;;;4891349;29;20197;-67
2024/01/20 06:24:08;;;;;;;9.80;7.33;;;3.20;99.30;;;;;;4895714;29;20970;-67
2024/01/20 06:26:34;;;;;;;11.60;7.40;;;3.20;99.00;;;;;;4896848;29;20187;-67
2024/01/20 06:29:00;;;;;;;12.97;7.10;;;3.20;98.50;;;;;;4885258;29;20305;-67
2024/01/20 06:31:28;;;;;;;8.75;6.55;;;3.10;98.10;;;;;;4888711;29;20179;-67
2024/01/20 06:33:54;;;;;;;7.32;6.43;;;3.10;97.90;;;;;;4864202;29;20544;-67
2024/01/20 06:36:27;;;;;;;8.38;6.10;;;3.20;98.10;;;;;;4879809;29;20182;-67
2024/01/20 06:38:53;;;;;;;9.25;6.38;;;3.10;98.10;;;;;;4896662;29;20528;-67
2024/01/20 06:41:18;;;;;;;16.13;10.77;;;3.10;98.40;;;;;;4895635;29;20171;-67
2024/01/20 06:43:44;;;;;;;11.10;7.50;;;3.10;98.50;;;;;;4895963;29;20186;-67
2024/01/20 06:46:10;;;;;;;8.17;6.73;;;3.10;98.50;;;;;;4871451;29;20189;-67
2024/01/20 06:48:36;;;;;;;11.27;7.93;;;3.20;98.30;;;;;;4895309;29;20255;-67
2024/01/20 06:51:06;;;;;;;10.10;7.35;;;3.10;97.70;;;;;;4887998;29;20684;-66
2024/01/20 06:53:32;;;;;;;7.70;6.57;;;3.10;98.00;;;;;;4895925;29;20191;-66
2024/01/20 06:55:58;;;;;;;10.13;6.85;;;3.10;98.30;;;;;;4892989;29;20180;-67
2024/01/20 06:58:24;;;;;;;9.63;6.70;;;3.10;98.00;;;;;;4861847;29;21122;-66
2024/01/20 07:00:50;;;;;;;8.65;6.88;;;3.10;98.40;;;;;;4871622;29;20211;-66
2024/01/20 07:03:16;;;;;;;11.48;7.72;;;3.10;98.40;;;;;;4889634;29;20555;-67
2024/01/20 07:05:42;;;;;;;11.63;7.85;;;3.10;98.10;;;;;;4891634;29;20622;-66
2024/01/20 07:08:09;;;;;;;10.50;6.70;;;3.10;97.80;;;;;;4889924;29;20298;-68
2024/01/20 07:10:35;;;;;;;8.77;7.00;;;3.10;97.90;;;;;;4894699;29;20427;-66
2024/01/20 07:13:01;;;;;;;10.50;6.57;;;3.10;97.70;;;;;;4896014;29;20243;-66
2024/01/20 07:15:29;;;;;;;10.63;6.87;;;3.10;97.10;;;;;;4884178;29;20223;-67
2024/01/20 07:17:58;;;;;;;11.00;7.78;;;3.10;97.10;;;;;;4898156;29;20656;-67
2024/01/20 07:20:25;;;;;;;12.73;7.60;;;3.10;97.60;;;;;;4898516;29;20198;-67
2024/01/20 07:22:50;;;;;;;9.80;7.95;;;3.10;97.70;;;;;;4899744;29;20179;-67
2024/01/20 07:25:18;;;;;;;11.70;7.70;;;3.10;97.70;;;;;;4877277;29;20265;-67
2024/01/20 07:27:44;;;;;;;9.82;6.35;;;3.10;97.80;;;;;;4898478;29;20187;-67
2024/01/20 07:30:10;;;;;;;7.68;6.88;;;3.00;97.50;;;;;;4899057;29;20277;-68
2024/01/20 07:32:39;;;;;;;8.43;6.50;;;3.00;97.50;;;;;;4894244;29;20676;-66
2024/01/20 07:35:07;;;;;;;7.50;6.68;;;3.00;97.00;;;;;;4883050;29;20224;-66
2024/01/20 07:37:36;;;;;;;9.10;7.40;;;3.00;97.20;;;;;;4899360;29;20243;-67
2024/01/20 07:40:05;;;;;;;10.98;7.47;;;3.00;97.70;;;;;;4900328;29;20185;-67
2024/01/20 07:42:34;;;;;;;9.48;6.55;;;3.00;97.40;;;;;;4898116;29;20380;-67
2024/01/20 07:45:00;;;;;;;7.32;6.57;;;2.90;97.30;;;;;;4874451;29;20184;-68
2024/01/20 07:47:26;;;;;;;10.50;7.10;;;3.00;97.50;;;;;;4879038;29;20187;-67
2024/01/20 07:49:52;;;;;;;12.67;6.10;;;3.00;97.20;;;;;;4899160;29;20641;-67
2024/01/20 07:52:18;;;;;;;8.97;7.00;;;3.00;97.20;;;;;;4899082;29;20409;-66
2024/01/20 07:54:44;;;;;;;9.37;7.20;;;2.90;97.00;;;;;;4889127;29;20435;-65
2024/01/20 07:57:10;;;;;;;10.20;8.67;;;3.00;97.70;;;;;;4897573;29;20234;-68
2024/01/20 07:59:36;;;;;;;9.47;8.63;;;3.90;99.90;;;;;;4897966;29;20438;-67
2024/01/20 08:02:01;;;;;;;12.30;7.73;;;5.10;99.90;;;;;;4872019;29;20398;-67
2024/01/20 08:04:27;;;;;;;9.87;8.67;;;6.10;99.90;;;;;;4866315;29;20911;-67
2024/01/20 08:06:53;;;;;;;9.40;8.03;;;6.90;99.90;;;;;;4899902;29;20515;-66
2024/01/20 08:09:19;;;;;;;8.60;7.10;;;7.30;99.90;;;;;;4896521;29;20276;-67
2024/01/20 08:11:45;;;;;;;9.23;7.80;;;7.90;99.90;;;;;;4878439;29;20410;-66
2024/01/20 08:14:11;;;;;;;9.30;7.77;;;8.40;99.90;;;;;;4869734;29;20527;-68
2024/01/20 08:16:37;;;;;;;7.50;6.70;;;8.90;99.90;;;;;;4868172;29;20194;-67
2024/01/20 08:19:02;;;;;;;9.00;8.10;;;9.30;99.90;;;;;;4889232;29;20824;-67
2024/01/20 08:21:28;;;;;;;7.63;6.93;;;9.60;98.90;;;;;;4894839;29;20196;-68
2024/01/20 08:23:54;;;;;;;7.63;6.40;;;10.00;98.50;;;;;;4898205;29;20226;-66
2024/01/20 08:26:20;;;;;;;8.30;7.00;;;10.20;94.80;;;;;;4862954;29;20196;-65
2024/01/20 08:28:46;;;;;;;7.97;7.00;;;10.40;91.40;;;;;;4882131;29;20922;-67
2024/01/20 08:31:12;;;;;;;9.60;7.93;;;10.60;92.50;;;;;;4889257;29;20434;-69
2024/01/20 08:33:38;;;;;;;10.57;8.10;;;10.90;91.50;;;;;;4884806;29;20190;-67
2024/01/20 08:36:04;;;;;;;8.10;7.30;;;11.00;90.70;;;;;;4884395;29;20431;-66
2024/01/20 08:38:30;;;;;;;8.97;7.40;;;11.20;88.60;;;;;;4893341;29;20686;-67
2024/01/20 08:40:56;;;;;;;8.97;7.57;;;11.40;86.80;;;;;;4891330;29;20767;-67
2024/01/20 08:43:21;;;;;;;7.70;6.83;;;11.60;86.10;;;;;;4884011;29;20218;-67
2024/01/20 08:45:47;;;;;;;11.63;7.60;;;11.90;84.90;;;;;;4865802;29;20421;-66
2024/01/20 08:48:13;;;;;;;10.37;8.57;;;12.10;80.90;;;;;;4876842;29;20327;-68
2024/01/20 08:50:39;;;;;;;8.10;6.80;;;12.10;74.20;;;;;;4880668;29;20214;-67
2024/01/20 08:53:04;;;;;;;8.37;7.57;;;12.30;78.70;;;;;;4881901;29;20211;-67
2024/01/20 08:55:30;;;;;;;9.03;7.80;;;12.40;73.90;;;;;;4894747;29;20203;-67
2024/01/20 08:57:56;;;;;;;10.97;7.83;;;12.70;72.50;;;;;;4898098;29;20240;-67
2024/01/20 09:00:23;;;;;;;9.77;8.00;;;12.80;72.10;;;;;;4890218;29;20194;-66
2024/01/20 09:02:48;;;;;;;9.53;8.00;;;12.90;65.60;;;;;;4895443;29;20764;-66
2024/01/20 09:05:17;;;;;;;9.23;7.77;;;11.90;59.10;;;;;;4879731;29;20444;-70
2024/01/20 09:07:43;;;;;;;7.30;6.60;;;11.40;60.20;;;;;;4889552;29;20193;-66
2024/01/20 09:10:09;;;;;;;7.37;6.40;;;11.40;62.10;;;;;;4895743;29;20455;-66
2024/01/20 09:12:35;;;;;;;7.10;6.40;;;11.60;60.10;;;;;;4885956;29;20425;-66
2024/01/20 09:15:01;;;;;;;6.33;5.73;;;11.90;59.50;;;;;;4887905;29;20449;-66
2024/01/20 09:17:26;;;;;;;7.07;6.27;;;12.30;58.00;;;;;;4893729;29;20198;-65
2024/01/20 09:19:52;;;;;;;7.07;6.40;;;12.70;57.50;;;;;;4890121;29;20200;-65
2024/01/20 09:22:18;;;;;;;52.47;36.37;;;13.50;56.60;;;;;;4894007;29;20193;-66
2024/01/20 09:24:44;;;;;;;562.60;378.60;;;14.00;54.30;;;;;;4898132;29;20525;-65
2024/01/20 09:27:09;;;;;;;36.13;25.33;;;14.20;54.10;;;;;;4894242;29;20446;-66
2024/01/20 09:29:35;;;;;;;9.40;7.43;;;14.30;53.10;;;;;;4893231;29;20212;-66
2024/01/20 09:32:01;;;;;;;8.60;7.70;;;14.40;52.50;;;;;;4889491;29;20215;-66
2024/01/20 09:34:28;;;;;;;7.10;6.40;;;14.50;52.00;;;;;;4892403;29;20218;-65
2024/01/20 09:36:54;;;;;;;7.30;6.60;;;15.20;51.50;;;;;;4892670;29;20188;-65
2024/01/20 09:39:20;;;;;;;7.37;6.67;;;15.40;49.70;;;;;;4894935;29;20531;-65
2024/01/20 09:41:46;;;;;;;9.70;8.00;;;16.20;49.90;;;;;;4876454;29;20605;-65
2024/01/20 09:44:14;;;;;;;7.60;6.90;;;17.00;48.70;;;;;;4890665;29;20450;-65
2024/01/20 09:46:40;;;;;;;7.67;6.40;;;17.70;47.20;;;;;;4896148;29;20463;-65
2024/01/20 09:49:06;;;;;;;6.93;6.33;;;18.30;45.50;;;;;;4906172;29;20973;-65
2024/01/20 09:51:32;;;;;;;843.97;559.83;;;18.60;44.20;;;;;;4889442;29;20191;-66
2024/01/20 09:53:59;;;;;;;28.53;22.27;;;18.90;44.00;;;;;;4889773;29;20191;-66
2024/01/20 09:56:28;;;;;;;7.87;7.13;;;18.60;42.70;;;;;;4904111;29;20235;-65
2024/01/20 09:58:59;;;;;;;7.00;6.50;;;18.30;42.80;;;;;;4901959;29;20430;-65
2024/01/20 10:01:26;;;;;;;8.40;7.70;;;18.10;42.70;;;;;;4903986;29;20427;-65
2024/01/20 10:03:54;;;;;;;8.70;7.10;;;17.70;42.80;;;;;;4894906;29;20526;-66
2024/01/20 10:06:19;;;;;;;6.73;6.13;;;17.10;43.00;;;;;;4898729;29;20439;-66
2024/01/20 10:08:45;;;;;;;8.13;6.27;;;16.60;44.10;;;;;;4895485;29;20473;-67
2024/01/20 10:11:11;;;;;;;7.10;6.20;;;16.00;45.00;;;;;;4896703;29;20214;-66
2024/01/20 10:13:37;;;;;;;6.77;6.20;;;15.50;46.00;;;;;;4895153;29;20183;-65
2024/01/20 10:16:03;;;;;;;6.90;6.30;;;15.20;46.90;;;;;;4897032;29;20210;-66
2024/01/20 10:18:29;;;;;;;6.83;6.20;;;14.90;47.80;;;;;;4879724;29;20186;-65
2024/01/20 10:21:05;;;;;;;6.23;5.63;;;14.60;48.50;;;;;;4897176;29;20433;-65
2024/01/20 10:23:38;;;;;;;6.77;6.17;;;14.30;48.90;;;;;;4895798;29;20179;-65
2024/01/20 10:26:05;;;;;;;6.43;5.83;;;13.90;49.70;;;;;;4897065;29;20420;-64
2024/01/20 10:28:32;;;;;;;6.53;5.90;;;13.60;50.50;;;;;;4869210;29;20469;-66
2024/01/20 10:31:04;;;;;;;7.50;5.30;;;13.40;51.10;;;;;;4871921;29;20437;-65
2024/01/20 10:33:31;;;;;;;6.30;5.80;;;13.10;51.70;;;;;;4867180;29;20490;-64
2024/01/20 10:35:59;;;;;;;5.90;5.30;;;12.80;51.90;;;;;;4892464;29;20469;-65
2024/01/20 10:38:28;;;;;;;6.30;5.67;;;12.50;52.60;;;;;;4870805;29;20435;-64
2024/01/20 10:40:55;;;;;;;7.90;5.80;;;12.20;53.20;;;;;;4895639;29;20979;-65
2024/01/20 10:43:22;;;;;;;8.50;5.67;;;11.80;54.20;;;;;;4894365;29;20435;-67
2024/01/20 10:46:00;;;;;;;6.23;5.50;;;11.60;54.70;;;;;;4896092;29;20417;-64
2024/01/20 10:48:28;;;;;;;5.97;5.47;;;11.30;55.60;;;;;;4877935;29;20981;-65
2024/01/20 10:51:08;;;;;;;7.43;5.50;;;11.20;56.30;;;;;;4877081;29;20435;-66
2024/01/20 10:53:35;;;;;;;7.47;6.63;;;11.10;56.90;;;;;;4886592;29;20522;-66
2024/01/20 10:56:04;;;;;;;6.73;5.70;;;11.00;56.10;;;;;;4895789;29;20471;-65
2024/01/20 10:58:44;;;;;;;7.63;6.00;;;10.60;56.20;;;;;;4869323;29;20449;-64
2024/01/20 11:01:11;;;;;;;7.43;5.97;;;10.60;57.20;;;;;;4879770;29;20446;-65
2024/01/20 11:03:38;;;;;;;7.77;6.17;;;10.60;58.00;;;;;;4891885;29;21228;-68
2024/01/20 11:06:04;;;;;;;6.90;6.20;;;10.80;57.50;;;;;;4889203;29;20797;-65
2024/01/20 11:08:31;;;;;;;7.63;5.93;;;10.90;57.70;;;;;;4894650;29;20460;-65
2024/01/20 11:10:57;;;;;;;6.30;5.70;;;11.00;58.30;;;;;;4876043;29;20428;-65
2024/01/20 11:13:26;;;;;;;7.73;7.03;;;11.10;58.00;;;;;;4877212;29;20431;-69
2024/01/20 11:15:53;;;;;;;6.67;5.43;;;11.20;57.70;;;;;;4897690;29;20266;-65
2024/01/20 11:18:21;;;;;;;6.43;5.80;;;11.40;57.40;;;;;;4896478;29;20477;-67
2024/01/20 11:20:57;;;;;;;150.40;72.60;;;11.50;56.70;;;;;;4880015;29;20538;-64
2024/01/20 11:23:24;;;;;;;17.70;13.07;;;11.70;57.20;;;;;;4877628;29;20443;-69
2024/01/20 11:25:50;;;;;;;6.83;6.20;;;11.90;57.20;;;;;;4875823;29;20843;-65
2024/01/20 11:28:32;;;;;;;5.33;4.83;;;12.10;56.80;;;;;;4871019;29;20554;-64
2024/01/20 11:30:58;;;;;;;5.73;5.23;;;12.20;56.20;;;;;;4865627;29;20184;-65
2024/01/20 11:33:25;;;;;;;6.00;5.40;;;12.30;55.50;;;;;;4889578;29;20783;-66
2024/01/20 11:35:54;;;;;;;6.60;5.67;;;12.20;55.50;;;;;;4889021;29;20445;-66
2024/01/20 11:38:21;;;;;;;9.53;5.53;;;12.20;55.10;;;;;;4874682;29;20447;-67
2024/01/20 11:41:03;;;;;;;5.67;5.13;;;12.20;55.80;;;;;;4872987;29;20441;-66
2024/01/20 11:43:29;;;;;;;5.20;4.70;;;12.30;55.30;;;;;;4900934;29;20428;-67
2024/01/20 11:45:56;;;;;;;5.40;4.90;;;12.10;55.20;;;;;;4894658;29;20931;-66
2024/01/20 11:48:22;;;;;;;6.33;5.10;;;12.20;56.00;;;;;;4837886;29;21038;-69
2024/01/20 11:50:49;;;;;;;5.30;4.80;;;12.00;55.00;;;;;;4891976;29;20438;-66
2024/01/20 11:53:15;;;;;;;8.83;7.00;;;12.00;56.00;;;;;;4889052;29;20785;-65
2024/01/20 11:55:59;;;;;;;7.40;6.03;;;12.10;55.90;;;;;;4892972;29;20534;-64
2024/01/20 11:58:26;;;;;;;6.17;5.57;;;12.10;55.70;;;;;;4875558;29;20853;-67
2024/01/20 12:00:53;;;;;;;5.50;5.00;;;12.10;55.30;;;;;;4880815;29;20499;-66
2024/01/20 12:03:20;;;;;;;6.30;5.70;;;12.00;55.30;;;;;;4893204;29;20492;-67
2024/01/20 12:05:46;;;;;;;6.00;5.50;;;11.70;55.40;;;;;;4887819;29;20442;-67
2024/01/20 12:08:13;;;;;;;6.77;6.17;;;11.60;56.50;;;;;;4879328;29;20496;-65
2024/01/20 12:10:42;;;;;;;718.93;419.27;;;11.60;56.90;;;;;;4893650;29;20440;-67
2024/01/20 12:13:10;;;;;;;24.53;16.33;;;11.60;56.40;;;;;;4878521;29;20435;-65
2024/01/20 12:15:36;;;;;;;6.33;5.67;;;11.50;57.00;;;;;;4879453;29;20435;-66
2024/01/20 12:18:03;;;;;;;7.10;6.40;;;11.40;56.40;;;;;;4879440;29;20435;-66
2024/01/20 12:20:28;;;;;;;6.87;6.27;;;11.50;57.00;;;;;;4881996;29;20483;-64
2024/01/20 12:22:59;;;;;;;7.37;6.77;;;11.60;57.00;;;;;;4881832;29;20834;-64
2024/01/20 12:25:29;;;;;;;7.10;6.50;;;11.60;57.50;;;;;;4879715;29;20217;-68
2024/01/20 12:27:57;;;;;;;7.43;6.73;;;11.70;56.70;;;;;;4899502;29;20422;-65
2024/01/20 12:30:23;;;;;;;6.00;5.50;;;11.70;56.80;;;;;;4895976;29;20439;-68
2024/01/20 12:32:49;;;;;;;5.93;5.43;;;11.70;56.40;;;;;;4888711;29;20468;-66
2024/01/20 12:35:15;;;;;;;6.00;5.50;;;11.80;56.70;;;;;;4875690;29;20198;-64
2024/01/20 12:37:41;;;;;;;7.00;6.50;;;11.80;56.30;;;;;;4886478;29;20189;-66
2024/01/20 12:40:07;;;;;;;6.17;5.57;;;11.70;56.20;;;;;;4890375;29;20444;-66
2024/01/20 12:42:33;;;;;;;5.43;5.03;;;11.70;56.10;;;;;;4893736;29;20637;-66
2024/01/20 12:44:59;;;;;;;5.23;4.83;;;11.60;56.00;;;;;;4878061;29;20432;-66